createdAt,value
2018-12-22T00:00:12.254Z,95485.20
2018-12-22T00:02:41.378Z,95494.95
2018-12-22T00:05:10.538Z,95490.32
2018-12-22T00:07:39.642Z,95474.77
2018-12-22T00:10:09.004Z,95504.30
2018-12-22T00:12:38.055Z,95477.16
2018-12-22T00:15:07.243Z,95482.35
2018-12-22T00:17:36.334Z,95476.38
2018-12-22T00:20:06.293Z,95490.18
2018-12-22T00:22:35.925Z,95489.07
2018-12-22T00:25:05.240Z,95469.66
2018-12-22T00:27:34.423Z,95467.97
2018-12-22T00:30:03.982Z,95478.23
2018-12-22T00:32:33.252Z,95510.46
2018-12-22T00:35:02.334Z,95472.92
2018-12-22T00:37:31.443Z,95484.23
2018-12-22T00:40:00.524Z,95489.59
2018-12-22T00:42:29.615Z,95490.55
2018-12-22T00:44:58.703Z,95497.98
2018-12-22T00:47:27.804Z,95487.55
2018-12-22T00:49:57.037Z,95509.31
2018-12-22T00:52:26.237Z,95498.08
2018-12-22T00:54:55.654Z,95498.17
2018-12-22T00:57:24.996Z,95504.02
2018-12-22T00:59:54.078Z,95505.81
2018-12-22T01:02:23.178Z,95481.45
2018-12-22T01:04:52.258Z,95500.97
2018-12-22T01:07:21.546Z,95491.41
2018-12-22T01:09:50.692Z,95493.52
2018-12-22T01:12:19.886Z,95495.77
2018-12-22T01:14:49.027Z,95514.31
2018-12-22T01:17:18.170Z,95503.56
2018-12-22T01:19:47.354Z,95506.19
2018-12-22T01:22:16.458Z,95494.22
2018-12-22T01:24:45.558Z,95489.16
2018-12-22T01:27:14.746Z,95498.86
2018-12-22T01:29:43.838Z,95537.48
2018-12-22T01:32:12.946Z,95503.22
2018-12-22T01:34:42.034Z,95524.81
2018-12-22T01:37:11.114Z,95542.33
2018-12-22T01:39:40.183Z,95554.76
2018-12-22T01:42:09.361Z,95531.34
2018-12-22T01:44:38.454Z,95529.66
2018-12-22T01:47:07.616Z,95521.83
2018-12-22T01:49:36.651Z,95523.34
2018-12-22T01:52:05.846Z,95525.23
2018-12-22T01:54:35.014Z,95518.28
2018-12-22T01:57:04.186Z,95517.80
2018-12-22T01:59:33.299Z,95517.80
2018-12-22T02:02:02.596Z,95512.77
2018-12-22T02:04:31.701Z,95521.20
2018-12-22T02:07:00.775Z,95513.95
2018-12-22T02:09:29.857Z,95510.73
2018-12-22T02:11:59.076Z,95509.66
2018-12-22T02:14:28.276Z,95513.41
2018-12-22T02:16:57.357Z,95515.55
2018-12-22T02:19:26.870Z,95496.52
2018-12-22T02:21:56.093Z,95498.92
2018-12-22T02:24:25.197Z,95506.05
2018-12-22T02:26:54.377Z,95519.65
2018-12-22T02:36:11.396Z,95495.27
2018-12-22T02:38:40.575Z,95496.27
2018-12-22T02:41:09.674Z,95495.09
2018-12-22T02:43:38.821Z,95489.05
2018-12-22T02:46:07.922Z,95476.45
2018-12-22T02:48:37.032Z,95496.66
2018-12-22T02:51:06.270Z,95485.17
2018-12-22T02:53:35.373Z,95486.22
2018-12-22T02:56:04.513Z,95484.05
2018-12-22T02:58:33.616Z,95504.61
2018-12-22T03:01:02.697Z,95512.05
2018-12-22T03:03:31.846Z,95472.22
2018-12-22T03:06:00.996Z,95475.50
2018-12-22T03:08:30.093Z,95472.70
2018-12-22T03:10:59.289Z,95470.11
2018-12-22T03:13:28.407Z,95461.77
2018-12-22T03:15:57.483Z,95464.62
2018-12-22T03:18:26.574Z,95474.29
2018-12-22T03:20:55.746Z,95476.23
2018-12-22T03:23:24.959Z,95465.28
2018-12-22T03:25:54.127Z,95469.22
2018-12-22T03:28:24.063Z,95468.16
2018-12-22T03:30:53.150Z,95470.27
2018-12-22T03:33:22.232Z,95460.89
2018-12-22T03:35:51.454Z,95471.00
2018-12-22T03:38:20.708Z,95448.66
2018-12-22T03:40:49.873Z,95448.69
2018-12-22T03:43:18.967Z,95450.77
2018-12-22T03:45:48.068Z,95447.27
2018-12-22T03:48:17.167Z,95449.87
2018-12-22T03:50:46.267Z,95445.39
2018-12-22T03:53:15.430Z,95444.49
2018-12-22T03:55:44.518Z,95446.78
2018-12-22T03:58:13.618Z,95438.86
2018-12-22T04:00:42.722Z,95439.81
2018-12-22T04:03:12.008Z,95457.13
2018-12-22T04:05:41.438Z,95442.02
2018-12-22T04:08:10.526Z,95426.72
2018-12-22T04:10:39.618Z,95427.70
2018-12-22T04:13:08.813Z,95432.94
2018-12-22T04:15:38.013Z,95438.18
2018-12-22T04:18:07.173Z,95468.36
2018-12-22T04:20:36.603Z,95420.49
2018-12-22T04:23:05.819Z,95415.95
2018-12-22T04:25:34.923Z,95434.78
2018-12-22T04:30:49.043Z,95428.27
2018-12-22T04:33:18.195Z,95420.28
2018-12-22T04:35:47.321Z,95419.67
2018-12-22T04:38:16.443Z,95415.25
2018-12-22T04:40:45.562Z,95432.70
2018-12-22T04:43:14.713Z,95430.09
2018-12-22T04:45:49.451Z,95436.42
2018-12-22T04:48:18.664Z,95447.78
2018-12-22T04:50:47.798Z,95454.84
2018-12-22T04:53:16.918Z,95436.44
2018-12-22T04:55:47.063Z,95444.59
2018-12-22T04:58:16.180Z,95426.56
2018-12-22T05:00:51.631Z,95441.06
2018-12-22T05:03:21.118Z,95495.72
2018-12-22T05:05:50.231Z,95440.61
2018-12-22T05:08:19.661Z,95470.20
2018-12-22T05:10:53.814Z,95448.38
2018-12-22T05:13:23.190Z,95474.30
2018-12-22T05:15:52.354Z,95433.91
2018-12-22T05:18:21.484Z,95467.42
2018-12-22T05:20:52.856Z,95450.66
2018-12-22T05:23:23.114Z,95447.42
2018-12-22T05:25:52.487Z,95472.16
2018-12-22T05:31:05.586Z,95486.23
2018-12-22T05:33:35.730Z,95468.74
2018-12-22T05:36:04.852Z,95454.26
2018-12-22T05:38:34.181Z,95453.91
2018-12-22T05:41:05.586Z,95477.04
2018-12-22T05:43:34.750Z,95462.20
2018-12-22T05:46:03.857Z,95460.61
2018-12-22T05:48:34.016Z,95498.98
2018-12-22T05:51:03.359Z,95460.27
2018-12-22T05:53:33.525Z,95498.03
2018-12-22T05:56:02.628Z,95486.67
2018-12-22T05:58:31.721Z,95468.74
2018-12-22T06:01:00.930Z,95508.42
2018-12-22T06:03:30.047Z,95493.14
2018-12-22T06:05:59.156Z,95500.30
2018-12-22T06:08:28.270Z,95509.08
2018-12-22T06:10:57.495Z,95532.95
2018-12-22T06:13:27.624Z,95515.36
2018-12-22T06:15:56.713Z,95497.25
2018-12-22T06:18:25.850Z,95508.81
2018-12-22T06:20:55.077Z,95491.27
2018-12-22T06:23:24.183Z,95504.09
2018-12-22T06:25:53.332Z,95496.94
2018-12-22T06:28:22.501Z,95508.69
2018-12-22T06:30:51.597Z,95517.45
2018-12-22T06:33:20.711Z,95512.12
2018-12-22T06:35:49.817Z,95523.84
2018-12-22T06:38:19.107Z,95511.00
2018-12-22T06:40:48.310Z,95514.27
2018-12-22T06:43:17.519Z,95503.22
2018-12-22T06:45:46.639Z,95513.31
2018-12-22T06:48:15.737Z,95506.64
2018-12-22T06:50:44.843Z,95519.95
2018-12-22T06:53:14.000Z,95509.43
2018-12-22T06:55:43.091Z,95529.27
2018-12-22T06:58:12.194Z,95518.59
2018-12-22T07:00:41.343Z,95492.55
2018-12-22T07:03:10.427Z,95505.70
2018-12-22T07:05:39.505Z,95510.54
2018-12-22T07:08:08.607Z,95514.95
2018-12-22T07:10:37.717Z,95508.28
2018-12-22T07:13:06.845Z,95404.27
2018-12-22T07:15:36.030Z,95509.25
2018-12-22T07:18:05.118Z,95498.50
2018-12-22T07:20:34.454Z,95512.68
2018-12-22T07:23:03.559Z,95508.94
2018-12-22T07:25:32.706Z,95497.52
2018-12-22T07:28:01.874Z,95500.79
2018-12-22T07:30:31.080Z,95514.92
2018-12-22T07:33:00.168Z,95520.48
2018-12-22T07:35:29.319Z,95518.99
2018-12-22T07:37:58.415Z,95527.63
2018-12-22T07:40:33.790Z,95516.23
2018-12-22T07:43:02.935Z,95497.99
2018-12-22T07:45:32.046Z,95526.67
2018-12-22T07:48:01.170Z,95509.26
2018-12-22T07:50:30.276Z,95522.73
2018-12-22T07:52:59.370Z,95538.40
2018-12-22T07:55:28.486Z,95552.22
2018-12-22T07:57:59.446Z,95566.36
2018-12-22T08:00:34.819Z,95568.04
2018-12-22T08:02:59.930Z,95572.91
2018-12-22T08:05:29.039Z,95562.17
2018-12-22T08:07:58.126Z,95581.09
2018-12-22T08:10:27.350Z,95585.94
2018-12-22T08:12:56.522Z,95637.34
2018-12-22T08:15:25.632Z,95582.83
2018-12-22T08:17:54.836Z,95593.08
2018-12-22T08:20:23.966Z,95593.62
2018-12-22T08:22:53.149Z,95612.64
2018-12-22T08:25:22.700Z,95629.38
2018-12-22T08:27:52.351Z,95627.45
2018-12-22T08:30:21.438Z,95602.25
2018-12-22T08:32:50.562Z,95652.51
2018-12-22T08:35:19.720Z,95603.37
2018-12-22T08:37:48.834Z,95584.64
2018-12-22T08:40:18.079Z,95593.09
2018-12-22T08:42:47.308Z,95600.38
2018-12-22T08:45:17.483Z,95618.14
2018-12-22T08:47:46.634Z,95624.45
2018-12-22T08:50:15.729Z,95651.77
2018-12-22T08:52:44.926Z,95641.03
2018-12-22T08:55:16.338Z,95658.08
2018-12-22T08:57:45.431Z,95656.00
2018-12-22T09:00:14.652Z,95674.56
2018-12-22T09:02:43.982Z,95701.70
2018-12-22T09:05:13.185Z,95656.34
2018-12-22T09:07:42.287Z,95696.34
2018-12-22T09:10:11.417Z,95702.22
2018-12-22T09:12:40.493Z,95701.44
2018-12-22T09:15:09.877Z,95719.95
2018-12-22T09:17:39.096Z,95716.56
2018-12-22T09:20:09.869Z,95705.28
2018-12-22T09:22:39.025Z,95700.89
2018-12-22T09:25:08.873Z,95731.34
2018-12-22T09:27:38.028Z,95718.18
2018-12-22T09:30:10.757Z,95710.84
2018-12-22T09:32:39.987Z,95726.48
2018-12-22T09:35:09.311Z,95738.98
2018-12-22T09:37:38.464Z,95769.16
2018-12-22T09:40:08.116Z,95751.56
2018-12-22T09:42:37.261Z,95731.89
2018-12-22T09:45:07.978Z,95744.47
2018-12-22T09:47:37.626Z,95744.95
2018-12-22T09:50:10.106Z,95752.40
2018-12-22T09:52:39.313Z,95756.19
2018-12-22T09:55:08.706Z,95764.84
2018-12-22T09:57:37.948Z,95775.69
2018-12-22T10:00:09.914Z,95767.78
2018-12-22T10:02:39.002Z,95776.01
2018-12-22T10:05:08.623Z,95772.16
2018-12-22T10:07:37.788Z,95762.81
2018-12-22T10:10:12.695Z,95749.33
2018-12-22T10:12:41.803Z,95764.03
2018-12-22T10:15:10.991Z,95760.12
2018-12-22T10:17:40.646Z,95792.94
2018-12-22T10:20:09.903Z,95767.49
2018-12-22T10:22:39.022Z,95760.47
2018-12-22T10:25:10.730Z,95783.56
2018-12-22T10:27:39.854Z,95776.06
2018-12-22T10:30:15.060Z,95800.45
2018-12-22T10:32:44.299Z,95763.16
2018-12-22T10:35:24.411Z,95761.63
2018-12-22T10:37:54.131Z,95754.48
2018-12-22T10:40:23.364Z,95761.25
2018-12-22T10:42:52.541Z,95767.73
2018-12-22T10:45:21.761Z,95761.45
2018-12-22T10:47:51.087Z,95765.14
2018-12-22T10:50:20.330Z,95747.42
2018-12-22T10:52:49.403Z,95768.98
2018-12-22T10:55:18.579Z,95761.77
2018-12-22T10:57:48.511Z,95783.56
2018-12-22T11:00:18.819Z,95779.03
2018-12-22T11:02:47.941Z,95777.34
2018-12-22T11:05:17.727Z,95776.36
2018-12-22T11:07:47.525Z,95763.03
2018-12-22T11:10:21.267Z,95771.92
2018-12-22T11:12:51.256Z,95789.36
2018-12-22T11:15:20.385Z,95764.61
2018-12-22T11:17:49.490Z,95775.83
2018-12-22T11:20:18.605Z,95778.25
2018-12-22T11:22:47.713Z,95784.75
2018-12-22T11:25:20.727Z,95791.75
2018-12-22T11:27:49.873Z,95795.61
2018-12-22T11:30:24.076Z,95789.28
2018-12-22T11:32:53.163Z,95772.88
2018-12-22T11:35:22.346Z,95784.41
2018-12-22T11:37:51.475Z,95783.59
2018-12-22T11:40:20.663Z,95779.16
2018-12-22T11:42:49.755Z,95792.97
2018-12-22T11:45:18.887Z,95794.33
2018-12-22T11:48:10.849Z,95838.23
2018-12-22T11:50:40.024Z,95802.45
2018-12-22T11:53:09.101Z,95801.95
2018-12-22T11:55:38.187Z,95801.28
2018-12-22T11:58:07.291Z,95795.77
2018-12-22T12:00:36.441Z,95800.44
2018-12-22T12:03:06.087Z,95787.16
2018-12-22T12:05:35.188Z,95818.41
2018-12-22T12:08:04.285Z,95814.33
2018-12-22T12:10:33.375Z,95825.67
2018-12-22T12:13:02.555Z,95837.10
2018-12-22T12:15:39.298Z,95847.72
2018-12-22T12:18:50.043Z,95851.80
2018-12-22T12:21:19.106Z,95855.30
2018-12-22T12:23:48.289Z,95868.75
2018-12-22T12:26:17.388Z,95873.33
2018-12-22T12:28:46.690Z,95862.56
2018-12-22T12:31:15.846Z,95868.22
2018-12-22T12:33:45.030Z,95866.97
2018-12-22T12:36:14.113Z,95866.66
2018-12-22T12:38:43.215Z,95863.57
2018-12-22T12:41:12.314Z,95871.62
2018-12-22T12:43:41.714Z,95870.91
2018-12-22T12:46:17.655Z,95861.91
2018-12-22T12:48:46.840Z,95885.13
2018-12-22T12:51:16.187Z,95867.38
2018-12-22T12:53:45.315Z,95869.25
2018-12-22T12:56:14.979Z,95873.16
2018-12-22T12:58:44.102Z,95884.67
2018-12-22T13:01:13.209Z,95874.99
2018-12-22T13:03:42.308Z,95880.55
2018-12-22T13:06:11.404Z,95886.38
2018-12-22T13:08:40.511Z,95876.16
2018-12-22T13:11:09.799Z,95867.19
2018-12-22T13:13:46.566Z,95868.70
2018-12-22T13:16:15.749Z,95875.56
2018-12-22T13:18:44.926Z,95868.71
2018-12-22T13:21:14.033Z,95867.15
2018-12-22T13:23:43.119Z,95883.46
2018-12-22T13:26:12.326Z,95867.84
2018-12-22T13:28:41.406Z,95886.16
2018-12-22T13:31:10.910Z,95888.09
2018-12-22T13:33:40.007Z,95892.67
2018-12-22T13:36:09.302Z,95891.89
2018-12-22T13:38:44.244Z,95900.63
2018-12-22T13:41:13.370Z,95909.42
2018-12-22T13:43:42.577Z,95911.10
2018-12-22T13:46:13.222Z,95910.61
2018-12-22T13:48:42.403Z,95915.59
2018-12-22T13:51:11.708Z,95913.08
2018-12-22T13:53:40.886Z,95919.71
2018-12-22T13:56:09.994Z,95923.78
2018-12-22T13:58:39.370Z,95922.86
2018-12-22T14:01:12.294Z,95922.72
2018-12-22T14:03:43.507Z,95931.86
2018-12-22T14:06:49.820Z,95933.74
2018-12-22T14:09:19.017Z,95929.89
2018-12-22T14:11:48.150Z,95945.14
2018-12-22T14:14:21.456Z,95939.81
2018-12-22T14:17:27.810Z,95955.57
2018-12-22T14:20:00.605Z,95951.64
2018-12-22T14:22:31.335Z,95966.08
2018-12-22T14:25:01.103Z,95947.55
2018-12-22T14:27:30.855Z,95959.33
2018-12-22T14:30:00.265Z,95954.86
2018-12-22T14:32:29.347Z,95993.00
2018-12-22T14:35:12.679Z,96023.23
2018-12-22T14:37:41.910Z,95996.89
2018-12-22T14:40:11.621Z,95996.98
2018-12-22T14:42:40.715Z,95991.97
2018-12-22T14:45:11.631Z,95981.05
2018-12-22T14:47:40.813Z,95999.41
2018-12-22T14:50:11.359Z,96013.83
2018-12-22T14:52:40.507Z,96024.03
2018-12-22T14:55:09.999Z,96040.16
2018-12-22T14:57:50.890Z,96026.21
2018-12-22T15:00:20.651Z,96032.94
2018-12-22T15:02:49.950Z,96036.98
2018-12-22T15:05:19.086Z,96034.16
2018-12-22T15:07:48.399Z,96040.37
2018-12-22T15:10:17.532Z,96034.80
2018-12-22T15:12:46.604Z,96033.91
2018-12-22T15:15:15.829Z,96036.70
2018-12-22T15:17:45.242Z,96034.77
2018-12-22T15:20:17.098Z,96035.94
2018-12-22T15:22:46.230Z,96047.77
2018-12-22T15:25:15.321Z,96050.45
2018-12-22T15:27:44.625Z,96054.63
2018-12-22T15:30:14.810Z,96045.09
2018-12-22T15:32:53.792Z,96050.64
2018-12-22T15:35:15.162Z,96050.64
2018-12-22T15:37:44.256Z,96054.05
2018-12-22T15:40:13.468Z,96058.98
2018-12-22T15:42:42.542Z,96053.58
2018-12-22T15:45:13.374Z,96059.61
2018-12-22T15:47:43.525Z,96063.59
2018-12-22T15:50:15.865Z,96062.96
2018-12-22T15:52:45.006Z,96058.89
2018-12-22T15:55:14.084Z,96066.42
2018-12-22T15:57:43.258Z,96070.44
2018-12-22T16:00:13.096Z,96077.34
2018-12-22T16:02:42.169Z,96081.98
2018-12-22T16:05:11.617Z,96088.91
2018-12-22T16:07:41.087Z,96088.00
2018-12-22T16:10:12.275Z,96086.49
2018-12-22T16:12:41.458Z,96079.17
2018-12-22T16:15:13.463Z,96072.38
2018-12-22T16:17:42.732Z,96072.50
2018-12-22T16:20:12.942Z,96080.34
2018-12-22T16:22:45.929Z,96091.94
2018-12-22T16:25:15.090Z,96092.54
2018-12-22T16:27:44.299Z,96091.03
2018-12-22T16:30:20.458Z,96087.50
2018-12-22T16:32:49.667Z,96086.02
2018-12-22T16:35:18.890Z,96093.91
2018-12-22T16:37:47.976Z,96081.23
2018-12-22T16:40:17.283Z,96072.81
2018-12-22T16:42:46.350Z,96068.52
2018-12-22T16:45:16.143Z,96087.49
2018-12-22T16:47:45.431Z,96099.27
2018-12-22T16:50:15.227Z,96095.72
2018-12-22T16:52:44.340Z,96108.13
2018-12-22T16:55:14.974Z,96108.63
2018-12-22T16:57:49.389Z,96099.13
2018-12-22T17:00:21.957Z,96113.11
2018-12-22T17:02:56.899Z,96109.32
2018-12-22T17:05:26.110Z,96096.16
2018-12-22T17:07:55.179Z,96097.58
2018-12-22T17:10:26.067Z,96105.13
2018-12-22T17:12:55.231Z,96110.09
2018-12-22T17:15:24.443Z,96113.28
2018-12-22T17:17:53.623Z,96115.12
2018-12-22T17:20:22.724Z,96123.73
2018-12-22T17:23:18.001Z,96124.77
2018-12-22T17:25:54.510Z,96125.25
2018-12-22T17:28:28.163Z,96129.50
2018-12-22T17:30:54.854Z,96129.35
2018-12-22T17:33:23.977Z,96128.66
2018-12-22T17:35:53.147Z,96139.02
2018-12-22T17:38:22.314Z,96143.86
2018-12-22T17:40:51.398Z,96142.78
2018-12-22T17:43:20.730Z,96141.02
2018-12-22T17:45:49.922Z,96155.14
2018-12-22T17:48:19.119Z,96162.36
2018-12-22T17:50:48.202Z,96158.58
2018-12-22T17:53:23.974Z,96163.98
2018-12-22T17:55:53.059Z,96166.83
2018-12-22T17:58:22.253Z,96168.56
2018-12-22T18:00:51.414Z,96174.45
2018-12-22T18:03:27.351Z,96181.63
2018-12-22T18:05:53.119Z,96181.63
2018-12-22T18:08:22.195Z,96177.75
2018-12-22T18:10:51.307Z,96185.88
2018-12-22T18:13:20.432Z,96179.62
2018-12-22T18:15:49.663Z,96187.77
2018-12-22T18:18:18.751Z,96193.88
2018-12-22T18:20:47.841Z,96191.51
2018-12-22T18:23:17.024Z,96193.98
2018-12-22T18:25:46.135Z,96187.88
2018-12-22T18:28:15.200Z,96193.50
2018-12-22T18:30:44.299Z,96198.42
2018-12-22T18:33:13.855Z,96198.08
2018-12-22T18:35:43.022Z,96196.30
2018-12-22T18:38:12.130Z,96197.00
2018-12-22T18:40:41.210Z,96202.67
2018-12-22T18:43:10.318Z,96205.47
2018-12-22T18:45:39.398Z,96210.03
2018-12-22T18:48:08.512Z,96211.59
2018-12-22T18:50:37.675Z,96207.26
2018-12-22T18:53:06.777Z,96217.40
2018-12-22T18:55:42.455Z,96201.05
2018-12-22T18:58:12.665Z,96200.34
2018-12-22T19:00:41.758Z,96187.03
2018-12-22T19:03:10.851Z,96194.09
2018-12-22T19:05:39.933Z,96196.61
2018-12-22T19:08:12.981Z,96195.17
2018-12-22T19:10:48.666Z,96192.95
2018-12-22T19:13:17.770Z,96188.58
2018-12-22T19:15:46.978Z,96184.95
2018-12-22T19:18:16.048Z,96186.11
2018-12-22T19:20:52.095Z,96198.72
2018-12-22T19:23:22.923Z,96213.77
2018-12-22T19:25:52.367Z,96204.59
2018-12-22T19:28:21.454Z,96233.53
2018-12-22T19:30:50.556Z,96224.95
2018-12-22T19:33:19.637Z,96234.02
2018-12-22T19:35:48.720Z,96247.52
2018-12-22T19:38:24.397Z,96238.01
2018-12-22T19:40:53.490Z,96264.73
2018-12-22T19:43:22.565Z,96246.56
2018-12-22T19:45:51.748Z,96269.28
2018-12-22T19:48:20.827Z,96250.92
2018-12-22T19:50:49.953Z,96257.37
2018-12-22T19:53:19.125Z,96256.00
2018-12-22T19:55:48.197Z,96257.88
2018-12-22T19:58:17.325Z,96260.77
2018-12-22T20:00:46.416Z,96246.78
2018-12-22T20:03:15.538Z,96253.22
2018-12-22T20:05:44.646Z,96257.84
2018-12-22T20:08:13.804Z,96249.22
2018-12-22T20:10:45.024Z,96256.17
2018-12-22T20:13:14.047Z,96252.28
2018-12-22T20:15:43.167Z,96250.88
2018-12-22T20:18:12.259Z,96257.47
2018-12-22T20:20:41.344Z,96262.28
2018-12-22T20:23:10.446Z,96263.95
2018-12-22T20:25:39.531Z,96270.91
2018-12-22T20:28:08.708Z,96258.06
2018-12-22T20:30:37.942Z,96264.33
2018-12-22T20:33:07.030Z,96265.40
2018-12-22T20:35:36.298Z,96261.84
2018-12-22T20:38:05.590Z,96264.91
2018-12-22T20:40:34.704Z,96253.48
2018-12-22T20:43:03.781Z,96261.25
2018-12-22T20:45:32.967Z,96261.03
2018-12-22T20:48:02.241Z,96262.66
2018-12-22T20:50:31.301Z,96258.55
2018-12-22T20:53:00.523Z,96250.55
2018-12-22T20:55:29.636Z,96248.89
2018-12-22T20:57:58.753Z,96245.38
2018-12-22T21:00:27.878Z,96233.83
2018-12-22T21:02:56.973Z,96235.34
2018-12-22T21:05:30.526Z,96235.33
2018-12-22T21:07:59.607Z,96243.93
2018-12-22T21:10:28.774Z,96247.48
2018-12-22T21:12:57.866Z,96247.81
2018-12-22T21:15:27.048Z,96250.66
2018-12-22T21:17:56.254Z,96252.55
2018-12-22T21:20:25.442Z,96256.33
2018-12-22T21:22:54.526Z,96249.27
2018-12-22T21:25:23.626Z,96245.97
2018-12-22T21:27:52.894Z,96246.81
2018-12-22T21:30:22.032Z,96250.70
2018-12-22T21:32:51.111Z,96255.73
2018-12-22T21:35:20.205Z,96266.33
2018-12-22T21:37:49.622Z,96265.40
2018-12-22T21:40:18.830Z,96259.63
2018-12-22T21:42:47.939Z,96273.87
2018-12-22T21:45:17.131Z,96269.17
2018-12-22T21:47:46.319Z,96273.42
2018-12-22T21:50:15.429Z,96278.95
2018-12-22T21:52:44.518Z,96274.13
2018-12-22T21:55:13.769Z,96275.31
2018-12-22T21:57:42.917Z,96280.35
2018-12-22T22:00:12.202Z,96287.31
2018-12-22T22:02:41.295Z,96271.28
2018-12-22T22:05:10.501Z,96289.45
2018-12-22T22:07:39.787Z,96279.31
2018-12-22T22:10:08.987Z,96279.91
2018-12-22T22:12:38.074Z,96274.36
2018-12-22T22:15:07.284Z,96278.50
2018-12-22T22:17:36.321Z,96282.27
2018-12-22T22:20:05.648Z,96285.08
2018-12-22T22:22:34.874Z,96282.23
2018-12-22T22:25:04.296Z,96282.37
2018-12-22T22:27:33.475Z,96286.61
2018-12-22T22:30:02.589Z,96291.45
2018-12-22T22:32:31.774Z,96289.31
2018-12-22T22:35:01.068Z,96289.78
2018-12-22T22:37:30.169Z,96288.83
2018-12-22T22:39:59.265Z,96291.78
2018-12-22T22:42:28.458Z,96285.68
2018-12-22T22:44:57.503Z,96281.31
2018-12-22T22:47:26.565Z,96290.48
2018-12-22T22:49:55.674Z,96284.02
2018-12-22T22:52:24.753Z,96277.20
2018-12-22T22:54:53.837Z,96281.31
2018-12-22T22:57:22.933Z,96283.80
2018-12-22T22:59:52.124Z,96286.23
2018-12-22T23:02:21.439Z,96287.31
2018-12-22T23:04:54.262Z,96292.60
2018-12-22T23:07:21.657Z,96292.94
2018-12-22T23:09:50.739Z,96288.94
2018-12-22T23:12:20.159Z,96299.42
2018-12-22T23:14:49.322Z,96305.67
2018-12-22T23:17:18.470Z,96310.41
2018-12-22T23:19:47.651Z,96331.36
2018-12-22T23:22:16.728Z,96314.48
2018-12-22T23:24:45.831Z,96306.97
2018-12-22T23:27:14.920Z,96308.04
2018-12-22T23:29:44.012Z,96299.08
2018-12-22T23:32:13.082Z,96289.09
2018-12-22T23:34:42.247Z,96291.67
2018-12-22T23:37:11.526Z,96290.48
2018-12-22T23:39:40.644Z,96287.79
2018-12-22T23:42:09.721Z,96295.92
2018-12-22T23:44:38.804Z,96292.03
2018-12-22T23:47:07.907Z,96297.33
2018-12-22T23:49:37.003Z,96303.81
2018-12-22T23:52:06.303Z,96308.98
2018-12-22T23:54:35.391Z,96314.42
2018-12-22T23:57:05.648Z,96316.89
2018-12-22T23:59:34.732Z,96318.41
